sensor_id;sensor_type;location;lat;lon;timestamp;P1;durP1;ratioP1;P2;durP2;ratioP2
49416;SDS011;35290;39.550;8.786;2023-05-10T00:00:08;8.25;;;4.65;;
49416;SDS011;35290;39.550;8.786;2023-05-10T00:02:35;10.82;;;4.00;;
49416;SDS011;35290;39.550;8.786;2023-05-10T00:05:01;11.50;;;4.20;;
49416;SDS011;35290;39.550;8.786;2023-05-10T00:10:30;8.73;;;4.05;;
49416;SDS011;35290;39.550;8.786;2023-05-10T00:12:59;8.35;;;3.72;;
49416;SDS011;35290;39.550;8.786;2023-05-10T00:15:31;7.90;;;4.05;;
49416;SDS011;35290;39.550;8.786;2023-05-10T00:17:58;10.65;;;4.13;;
49416;SDS011;35290;39.550;8.786;2023-05-10T00:20:29;7.88;;;3.28;;
49416;SDS011;35290;39.550;8.786;2023-05-10T00:22:55;9.27;;;3.88;;
49416;SDS011;35290;39.550;8.786;2023-05-10T00:25:27;10.50;;;3.53;;
49416;SDS011;35290;39.550;8.786;2023-05-10T00:27:58;10.13;;;3.70;;
49416;SDS011;35290;39.550;8.786;2023-05-10T00:30:27;8.57;;;3.20;;
49416;SDS011;35290;39.550;8.786;2023-05-10T00:32:53;6.90;;;2.92;;
49416;SDS011;35290;39.550;8.786;2023-05-10T00:35:21;8.27;;;3.35;;
49416;SDS011;35290;39.550;8.786;2023-05-10T00:37:47;9.35;;;3.03;;
49416;SDS011;35290;39.550;8.786;2023-05-10T00:40:13;8.02;;;3.50;;
49416;SDS011;35290;39.550;8.786;2023-05-10T00:42:40;9.57;;;3.30;;
49416;SDS011;35290;39.550;8.786;2023-05-10T00:45:06;7.55;;;3.00;;
49416;SDS011;35290;39.550;8.786;2023-05-10T00:47:32;8.20;;;3.53;;
49416;SDS011;35290;39.550;8.786;2023-05-10T00:49:59;6.70;;;3.13;;
49416;SDS011;35290;39.550;8.786;2023-05-10T00:52:26;10.85;;;2.90;;
49416;SDS011;35290;39.550;8.786;2023-05-10T00:54:52;9.35;;;3.03;;
49416;SDS011;35290;39.550;8.786;2023-05-10T00:57:19;6.78;;;2.58;;
49416;SDS011;35290;39.550;8.786;2023-05-10T00:59:47;7.05;;;2.70;;
49416;SDS011;35290;39.550;8.786;2023-05-10T01:02:16;11.70;;;3.10;;
49416;SDS011;35290;39.550;8.786;2023-05-10T01:04:43;6.18;;;2.53;;
49416;SDS011;35290;39.550;8.786;2023-05-10T01:07:12;8.38;;;2.72;;
49416;SDS011;35290;39.550;8.786;2023-05-10T01:09:38;9.27;;;2.90;;
49416;SDS011;35290;39.550;8.786;2023-05-10T01:12:05;9.95;;;2.65;;
49416;SDS011;35290;39.550;8.786;2023-05-10T01:14:32;9.00;;;3.15;;
49416;SDS011;35290;39.550;8.786;2023-05-10T01:16:59;8.25;;;2.40;;
49416;SDS011;35290;39.550;8.786;2023-05-10T01:19:27;5.45;;;2.30;;
49416;SDS011;35290;39.550;8.786;2023-05-10T01:43:37;9.98;;;2.30;;
49416;SDS011;35290;39.550;8.786;2023-05-10T01:46:07;9.23;;;2.33;;
49416;SDS011;35290;39.550;8.786;2023-05-10T01:51:39;5.35;;;2.38;;
49416;SDS011;35290;39.550;8.786;2023-05-10T01:54:07;9.85;;;2.72;;
49416;SDS011;35290;39.550;8.786;2023-05-10T01:56:34;8.02;;;2.67;;
49416;SDS011;35290;39.550;8.786;2023-05-10T02:02:04;5.45;;;2.30;;
49416;SDS011;35290;39.550;8.786;2023-05-10T02:04:30;7.45;;;2.58;;
49416;SDS011;35290;39.550;8.786;2023-05-10T02:06:56;5.28;;;2.28;;
49416;SDS011;35290;39.550;8.786;2023-05-10T02:12:25;5.43;;;2.10;;
49416;SDS011;35290;39.550;8.786;2023-05-10T02:14:52;6.00;;;1.90;;
49416;SDS011;35290;39.550;8.786;2023-05-10T02:22:48;7.13;;;1.92;;
49416;SDS011;35290;39.550;8.786;2023-05-10T02:25:14;5.65;;;2.05;;
49416;SDS011;35290;39.550;8.786;2023-05-10T02:30:43;5.55;;;1.92;;
49416;SDS011;35290;39.550;8.786;2023-05-10T02:41:40;7.38;;;2.40;;
49416;SDS011;35290;39.550;8.786;2023-05-10T02:44:07;7.90;;;2.85;;
49416;SDS011;35290;39.550;8.786;2023-05-10T02:46:34;6.45;;;2.65;;
49416;SDS011;35290;39.550;8.786;2023-05-10T02:52:05;6.55;;;2.28;;
49416;SDS011;35290;39.550;8.786;2023-05-10T02:54:33;7.43;;;2.33;;
49416;SDS011;35290;39.550;8.786;2023-05-10T02:57:02;6.68;;;2.08;;
49416;SDS011;35290;39.550;8.786;2023-05-10T02:59:30;8.15;;;2.00;;
49416;SDS011;35290;39.550;8.786;2023-05-10T03:01:58;5.50;;;2.17;;
49416;SDS011;35290;39.550;8.786;2023-05-10T03:04:25;5.78;;;2.22;;
49416;SDS011;35290;39.550;8.786;2023-05-10T03:06:51;3.78;;;2.00;;
49416;SDS011;35290;39.550;8.786;2023-05-10T03:09:19;5.93;;;2.28;;
49416;SDS011;35290;39.550;8.786;2023-05-10T03:11:53;9.38;;;2.08;;
49416;SDS011;35290;39.550;8.786;2023-05-10T03:17:00;6.53;;;2.05;;
49416;SDS011;35290;39.550;8.786;2023-05-10T03:19:36;6.95;;;2.38;;
49416;SDS011;35290;39.550;8.786;2023-05-10T03:22:06;5.68;;;1.70;;
49416;SDS011;35290;39.550;8.786;2023-05-10T03:24:34;4.32;;;1.98;;
49416;SDS011;35290;39.550;8.786;2023-05-10T03:27:01;6.05;;;2.33;;
49416;SDS011;35290;39.550;8.786;2023-05-10T03:29:29;4.53;;;1.63;;
49416;SDS011;35290;39.550;8.786;2023-05-10T03:31:58;7.05;;;2.22;;
49416;SDS011;35290;39.550;8.786;2023-05-10T03:34:24;7.57;;;1.77;;
49416;SDS011;35290;39.550;8.786;2023-05-10T03:36:51;3.00;;;1.60;;
49416;SDS011;35290;39.550;8.786;2023-05-10T03:42:19;4.80;;;1.70;;
49416;SDS011;35290;39.550;8.786;2023-05-10T03:44:46;4.25;;;1.80;;
49416;SDS011;35290;39.550;8.786;2023-05-10T03:50:16;10.25;;;2.05;;
49416;SDS011;35290;39.550;8.786;2023-05-10T03:52:43;12.02;;;2.50;;
49416;SDS011;35290;39.550;8.786;2023-05-10T03:55:09;12.32;;;2.33;;
49416;SDS011;35290;39.550;8.786;2023-05-10T04:00:38;10.13;;;2.25;;
49416;SDS011;35290;39.550;8.786;2023-05-10T04:03:09;7.40;;;2.38;;
49416;SDS011;35290;39.550;8.786;2023-05-10T04:05:35;10.60;;;2.38;;
49416;SDS011;35290;39.550;8.786;2023-05-10T04:11:10;5.18;;;2.15;;
49416;SDS011;35290;39.550;8.786;2023-05-10T04:16:52;17.00;;;2.28;;
49416;SDS011;35290;39.550;8.786;2023-05-10T04:19:18;7.20;;;2.08;;
49416;SDS011;35290;39.550;8.786;2023-05-10T04:21:44;11.20;;;2.55;;
49416;SDS011;35290;39.550;8.786;2023-05-10T04:24:10;4.03;;;2.00;;
49416;SDS011;35290;39.550;8.786;2023-05-10T04:26:36;7.45;;;2.45;;
49416;SDS011;35290;39.550;8.786;2023-05-10T04:29:02;7.68;;;1.95;;
49416;SDS011;35290;39.550;8.786;2023-05-10T04:31:28;5.80;;;2.00;;
49416;SDS011;35290;39.550;8.786;2023-05-10T04:33:54;7.13;;;2.08;;
49416;SDS011;35290;39.550;8.786;2023-05-10T04:36:20;7.07;;;2.25;;
49416;SDS011;35290;39.550;8.786;2023-05-10T04:44:14;12.73;;;2.17;;
49416;SDS011;35290;39.550;8.786;2023-05-10T04:46:40;8.40;;;2.72;;
49416;SDS011;35290;39.550;8.786;2023-05-10T04:52:09;10.27;;;2.35;;
49416;SDS011;35290;39.550;8.786;2023-05-10T04:54:35;9.73;;;1.83;;
49416;SDS011;35290;39.550;8.786;2023-05-10T04:57:01;8.88;;;1.75;;
49416;SDS011;35290;39.550;8.786;2023-05-10T04:59:27;8.40;;;1.90;;
49416;SDS011;35290;39.550;8.786;2023-05-10T05:01:53;10.70;;;2.22;;
49416;SDS011;35290;39.550;8.786;2023-05-10T05:04:19;10.85;;;2.03;;
49416;SDS011;35290;39.550;8.786;2023-05-10T05:06:45;15.27;;;2.55;;
49416;SDS011;35290;39.550;8.786;2023-05-10T05:12:13;4.88;;;1.70;;
49416;SDS011;35290;39.550;8.786;2023-05-10T05:14:39;8.55;;;2.53;;
49416;SDS011;35290;39.550;8.786;2023-05-10T05:17:06;7.90;;;1.80;;
49416;SDS011;35290;39.550;8.786;2023-05-10T05:19:32;13.85;;;2.50;;
49416;SDS011;35290;39.550;8.786;2023-05-10T05:21:58;8.40;;;1.95;;
49416;SDS011;35290;39.550;8.786;2023-05-10T05:24:24;9.77;;;2.00;;
49416;SDS011;35290;39.550;8.786;2023-05-10T05:26:49;17.70;;;2.50;;
49416;SDS011;35290;39.550;8.786;2023-05-10T05:29:16;15.25;;;2.00;;
49416;SDS011;35290;39.550;8.786;2023-05-10T05:31:42;13.43;;;2.05;;
49416;SDS011;35290;39.550;8.786;2023-05-10T05:34:08;12.15;;;2.03;;
49416;SDS011;35290;39.550;8.786;2023-05-10T05:36:35;10.20;;;2.22;;
49416;SDS011;35290;39.550;8.786;2023-05-10T05:39:03;12.90;;;2.25;;
49416;SDS011;35290;39.550;8.786;2023-05-10T05:41:29;11.70;;;2.00;;
49416;SDS011;35290;39.550;8.786;2023-05-10T05:43:55;12.43;;;1.80;;
49416;SDS011;35290;39.550;8.786;2023-05-10T05:46:21;14.40;;;1.80;;
49416;SDS011;35290;39.550;8.786;2023-05-10T05:51:50;13.38;;;1.65;;
49416;SDS011;35290;39.550;8.786;2023-05-10T05:54:16;14.05;;;1.65;;
49416;SDS011;35290;39.550;8.786;2023-05-10T05:56:42;9.98;;;1.50;;
49416;SDS011;35290;39.550;8.786;2023-05-10T06:07:40;8.82;;;1.60;;
49416;SDS011;35290;39.550;8.786;2023-05-10T06:10:07;9.80;;;1.40;;
49416;SDS011;35290;39.550;8.786;2023-05-10T06:12:33;11.23;;;2.10;;
49416;SDS011;35290;39.550;8.786;2023-05-10T06:14:59;12.00;;;1.70;;
49416;SDS011;35290;39.550;8.786;2023-05-10T06:17:26;11.45;;;1.40;;
49416;SDS011;35290;39.550;8.786;2023-05-10T06:19:52;14.63;;;1.58;;
49416;SDS011;35290;39.550;8.786;2023-05-10T06:22:20;10.65;;;1.75;;
49416;SDS011;35290;39.550;8.786;2023-05-10T06:24:48;10.35;;;1.77;;
49416;SDS011;35290;39.550;8.786;2023-05-10T06:27:15;10.38;;;1.40;;
49416;SDS011;35290;39.550;8.786;2023-05-10T06:29:40;7.97;;;1.50;;
49416;SDS011;35290;39.550;8.786;2023-05-10T06:32:06;9.07;;;1.38;;
49416;SDS011;35290;39.550;8.786;2023-05-10T06:34:32;6.63;;;1.27;;
49416;SDS011;35290;39.550;8.786;2023-05-10T06:36:59;10.52;;;1.50;;
49416;SDS011;35290;39.550;8.786;2023-05-10T06:42:31;18.83;;;10.88;;
49416;SDS011;35290;39.550;8.786;2023-05-10T06:44:58;14.23;;;5.63;;
49416;SDS011;35290;39.550;8.786;2023-05-10T06:50:26;7.60;;;2.42;;
49416;SDS011;35290;39.550;8.786;2023-05-10T06:52:53;7.47;;;1.63;;
49416;SDS011;35290;39.550;8.786;2023-05-10T06:55:20;7.18;;;1.02;;
49416;SDS011;35290;39.550;8.786;2023-05-10T07:00:49;9.00;;;2.00;;
49416;SDS011;35290;39.550;8.786;2023-05-10T07:03:15;15.55;;;2.13;;
49416;SDS011;35290;39.550;8.786;2023-05-10T07:05:41;11.40;;;1.65;;
49416;SDS011;35290;39.550;8.786;2023-05-10T07:11:11;10.50;;;2.13;;
49416;SDS011;35290;39.550;8.786;2023-05-10T07:13:37;13.70;;;2.30;;
49416;SDS011;35290;39.550;8.786;2023-05-10T07:16:04;12.52;;;2.17;;
49416;SDS011;35290;39.550;8.786;2023-05-10T07:21:34;13.38;;;1.98;;
49416;SDS011;35290;39.550;8.786;2023-05-10T07:24:00;9.20;;;1.63;;
49416;SDS011;35290;39.550;8.786;2023-05-10T07:26:26;14.13;;;2.25;;
49416;SDS011;35290;39.550;8.786;2023-05-10T07:28:52;9.18;;;2.22;;
49416;SDS011;35290;39.550;8.786;2023-05-10T07:31:19;13.10;;;2.33;;
49416;SDS011;35290;39.550;8.786;2023-05-10T07:33:45;12.27;;;2.15;;
49416;SDS011;35290;39.550;8.786;2023-05-10T07:36:11;12.35;;;2.80;;
49416;SDS011;35290;39.550;8.786;2023-05-10T07:38:37;14.07;;;2.13;;
49416;SDS011;35290;39.550;8.786;2023-05-10T07:41:05;12.80;;;2.72;;
49416;SDS011;35290;39.550;8.786;2023-05-10T07:43:32;14.20;;;2.17;;
49416;SDS011;35290;39.550;8.786;2023-05-10T07:45:57;13.70;;;2.35;;
49416;SDS011;35290;39.550;8.786;2023-05-10T07:51:27;15.45;;;2.40;;
49416;SDS011;35290;39.550;8.786;2023-05-10T07:53:54;9.60;;;2.13;;
49416;SDS011;35290;39.550;8.786;2023-05-10T07:56:25;12.82;;;2.42;;
49416;SDS011;35290;39.550;8.786;2023-05-10T08:01:55;15.95;;;4.30;;
49416;SDS011;35290;39.550;8.786;2023-05-10T08:07:26;8.57;;;2.00;;
49416;SDS011;35290;39.550;8.786;2023-05-10T08:09:52;11.90;;;2.28;;
49416;SDS011;35290;39.550;8.786;2023-05-10T08:12:20;12.25;;;2.63;;
49416;SDS011;35290;39.550;8.786;2023-05-10T08:14:46;12.32;;;2.60;;
49416;SDS011;35290;39.550;8.786;2023-05-10T08:17:16;19.25;;;2.35;;
49416;SDS011;35290;39.550;8.786;2023-05-10T08:19:43;11.10;;;2.28;;
49416;SDS011;35290;39.550;8.786;2023-05-10T08:22:10;17.50;;;2.95;;
49416;SDS011;35290;39.550;8.786;2023-05-10T08:24:39;10.00;;;1.98;;
49416;SDS011;35290;39.550;8.786;2023-05-10T08:27:07;14.68;;;2.80;;
49416;SDS011;35290;39.550;8.786;2023-05-10T08:32:36;16.95;;;3.17;;
49416;SDS011;35290;39.550;8.786;2023-05-10T08:35:04;12.85;;;2.63;;
49416;SDS011;35290;39.550;8.786;2023-05-10T08:40:33;18.83;;;2.70;;
49416;SDS011;35290;39.550;8.786;2023-05-10T08:43:04;12.38;;;2.28;;
49416;SDS011;35290;39.550;8.786;2023-05-10T08:45:32;14.05;;;2.50;;
49416;SDS011;35290;39.550;8.786;2023-05-10T08:51:01;16.25;;;2.85;;
49416;SDS011;35290;39.550;8.786;2023-05-10T08:53:28;17.95;;;3.63;;
49416;SDS011;35290;39.550;8.786;2023-05-10T08:55:55;18.20;;;3.25;;
49416;SDS011;35290;39.550;8.786;2023-05-10T09:01:25;14.15;;;2.85;;
49416;SDS011;35290;39.550;8.786;2023-05-10T09:06:54;21.90;;;3.22;;
49416;SDS011;35290;39.550;8.786;2023-05-10T09:12:23;27.05;;;7.45;;
49416;SDS011;35290;39.550;8.786;2023-05-10T09:17:52;24.00;;;4.57;;
49416;SDS011;35290;39.550;8.786;2023-05-10T09:20:20;20.00;;;3.72;;
49416;SDS011;35290;39.550;8.786;2023-05-10T09:22:47;22.08;;;3.25;;
49416;SDS011;35290;39.550;8.786;2023-05-10T09:25:15;22.52;;;3.20;;
49416;SDS011;35290;39.550;8.786;2023-05-10T09:30:45;19.17;;;3.42;;
49416;SDS011;35290;39.550;8.786;2023-05-10T09:33:18;21.42;;;4.07;;
49416;SDS011;35290;39.550;8.786;2023-05-10T09:35:45;17.83;;;3.28;;
49416;SDS011;35290;39.550;8.786;2023-05-10T09:41:18;20.80;;;4.88;;
49416;SDS011;35290;39.550;8.786;2023-05-10T09:43:45;24.20;;;5.20;;
49416;SDS011;35290;39.550;8.786;2023-05-10T09:46:10;20.70;;;4.25;;
49416;SDS011;35290;39.550;8.786;2023-05-10T09:51:39;23.52;;;4.28;;
49416;SDS011;35290;39.550;8.786;2023-05-10T09:54:10;24.10;;;3.80;;
49416;SDS011;35290;39.550;8.786;2023-05-10T09:56:36;21.48;;;4.05;;
49416;SDS011;35290;39.550;8.786;2023-05-10T10:02:07;19.83;;;3.88;;
49416;SDS011;35290;39.550;8.786;2023-05-10T10:04:33;20.92;;;3.67;;
49416;SDS011;35290;39.550;8.786;2023-05-10T10:07:04;15.93;;;3.20;;
49416;SDS011;35290;39.550;8.786;2023-05-10T10:09:31;26.90;;;4.10;;
49416;SDS011;35290;39.550;8.786;2023-05-10T10:11:58;23.48;;;4.47;;
49416;SDS011;35290;39.550;8.786;2023-05-10T10:14:25;18.23;;;4.53;;
49416;SDS011;35290;39.550;8.786;2023-05-10T10:16:51;22.08;;;4.82;;
49416;SDS011;35290;39.550;8.786;2023-05-10T10:22:20;24.15;;;5.70;;
49416;SDS011;35290;39.550;8.786;2023-05-10T10:24:46;21.27;;;4.97;;
49416;SDS011;35290;39.550;8.786;2023-05-10T10:29:57;23.70;;;5.25;;
49416;SDS011;35290;39.550;8.786;2023-05-10T10:32:32;25.15;;;4.00;;
49416;SDS011;35290;39.550;8.786;2023-05-10T10:35:01;21.85;;;3.70;;
49416;SDS011;35290;39.550;8.786;2023-05-10T10:40:33;22.92;;;4.32;;
49416;SDS011;35290;39.550;8.786;2023-05-10T10:45:43;14.02;;;2.15;;
49416;SDS011;35290;39.550;8.786;2023-05-10T10:53:41;20.35;;;3.80;;
49416;SDS011;35290;39.550;8.786;2023-05-10T10:56:08;11.63;;;2.70;;
49416;SDS011;35290;39.550;8.786;2023-05-10T11:07:18;13.88;;;2.78;;
49416;SDS011;35290;39.550;8.786;2023-05-10T11:09:45;16.67;;;2.83;;
49416;SDS011;35290;39.550;8.786;2023-05-10T11:12:12;21.05;;;3.70;;
49416;SDS011;35290;39.550;8.786;2023-05-10T11:14:39;13.52;;;3.10;;
49416;SDS011;35290;39.550;8.786;2023-05-10T11:17:24;17.60;;;3.85;;
49416;SDS011;35290;39.550;8.786;2023-05-10T11:20:09;24.42;;;3.55;;
49416;SDS011;35290;39.550;8.786;2023-05-10T11:22:51;21.27;;;3.83;;
49416;SDS011;35290;39.550;8.786;2023-05-10T11:25:17;13.25;;;2.80;;
49416;SDS011;35290;39.550;8.786;2023-05-10T11:30:46;17.50;;;2.97;;
49416;SDS011;35290;39.550;8.786;2023-05-10T11:33:16;16.88;;;2.97;;
49416;SDS011;35290;39.550;8.786;2023-05-10T11:35:42;20.52;;;3.55;;
49416;SDS011;35290;39.550;8.786;2023-05-10T11:41:11;18.50;;;3.00;;
49416;SDS011;35290;39.550;8.786;2023-05-10T11:43:41;26.20;;;4.00;;
49416;SDS011;35290;39.550;8.786;2023-05-10T11:46:07;21.33;;;3.60;;
49416;SDS011;35290;39.550;8.786;2023-05-10T11:51:37;29.42;;;3.70;;
49416;SDS011;35290;39.550;8.786;2023-05-10T11:54:06;23.50;;;3.83;;
49416;SDS011;35290;39.550;8.786;2023-05-10T11:56:33;13.40;;;2.58;;
49416;SDS011;35290;39.550;8.786;2023-05-10T12:02:01;25.63;;;4.00;;
49416;SDS011;35290;39.550;8.786;2023-05-10T12:04:28;23.77;;;3.63;;
49416;SDS011;35290;39.550;8.786;2023-05-10T12:06:55;16.48;;;3.20;;
49416;SDS011;35290;39.550;8.786;2023-05-10T12:12:24;20.25;;;3.83;;
49416;SDS011;35290;39.550;8.786;2023-05-10T12:14:51;18.05;;;3.75;;
49416;SDS011;35290;39.550;8.786;2023-05-10T12:17:17;30.17;;;7.32;;
49416;SDS011;35290;39.550;8.786;2023-05-10T12:22:49;20.67;;;3.10;;
49416;SDS011;35290;39.550;8.786;2023-05-10T12:25:20;18.30;;;3.30;;
49416;SDS011;35290;39.550;8.786;2023-05-10T12:30:49;22.08;;;3.72;;
49416;SDS011;35290;39.550;8.786;2023-05-10T12:33:19;16.27;;;3.22;;
49416;SDS011;35290;39.550;8.786;2023-05-10T12:35:49;19.65;;;2.88;;
49416;SDS011;35290;39.550;8.786;2023-05-10T12:41:19;16.65;;;2.97;;
49416;SDS011;35290;39.550;8.786;2023-05-10T12:43:46;20.02;;;3.55;;
49416;SDS011;35290;39.550;8.786;2023-05-10T12:46:13;20.48;;;3.13;;
49416;SDS011;35290;39.550;8.786;2023-05-10T12:54:07;22.02;;;4.18;;
49416;SDS011;35290;39.550;8.786;2023-05-10T12:56:33;19.58;;;3.75;;
49416;SDS011;35290;39.550;8.786;2023-05-10T13:02:02;14.70;;;3.22;;
49416;SDS011;35290;39.550;8.786;2023-05-10T13:04:28;20.25;;;4.05;;
49416;SDS011;35290;39.550;8.786;2023-05-10T13:06:54;17.63;;;3.38;;
49416;SDS011;35290;39.550;8.786;2023-05-10T13:12:27;16.63;;;3.30;;
49416;SDS011;35290;39.550;8.786;2023-05-10T13:17:56;19.67;;;3.58;;
49416;SDS011;35290;39.550;8.786;2023-05-10T13:20:21;24.90;;;3.53;;
49416;SDS011;35290;39.550;8.786;2023-05-10T13:22:47;22.42;;;3.95;;
49416;SDS011;35290;39.550;8.786;2023-05-10T13:25:13;20.00;;;4.00;;
49416;SDS011;35290;39.550;8.786;2023-05-10T13:27:39;17.15;;;3.10;;
49416;SDS011;35290;39.550;8.786;2023-05-10T13:30:05;20.05;;;3.20;;
49416;SDS011;35290;39.550;8.786;2023-05-10T13:32:31;17.83;;;3.55;;
49416;SDS011;35290;39.550;8.786;2023-05-10T13:34:58;16.77;;;3.65;;
49416;SDS011;35290;39.550;8.786;2023-05-10T13:37:24;27.52;;;4.07;;
49416;SDS011;35290;39.550;8.786;2023-05-10T13:39:50;19.13;;;2.88;;
49416;SDS011;35290;39.550;8.786;2023-05-10T13:42:17;23.73;;;3.75;;
49416;SDS011;35290;39.550;8.786;2023-05-10T13:44:43;17.42;;;2.72;;
49416;SDS011;35290;39.550;8.786;2023-05-10T13:47:09;13.65;;;2.85;;
49416;SDS011;35290;39.550;8.786;2023-05-10T13:52:38;18.10;;;2.90;;
49416;SDS011;35290;39.550;8.786;2023-05-10T13:55:03;14.93;;;3.50;;
49416;SDS011;35290;39.550;8.786;2023-05-10T13:57:29;24.60;;;4.32;;
49416;SDS011;35290;39.550;8.786;2023-05-10T13:59:55;18.50;;;3.50;;
49416;SDS011;35290;39.550;8.786;2023-05-10T14:02:22;22.52;;;3.75;;
49416;SDS011;35290;39.550;8.786;2023-05-10T14:04:48;17.50;;;3.38;;
49416;SDS011;35290;39.550;8.786;2023-05-10T14:07:17;24.10;;;3.78;;
49416;SDS011;35290;39.550;8.786;2023-05-10T14:09:43;17.05;;;3.58;;
49416;SDS011;35290;39.550;8.786;2023-05-10T14:12:09;17.50;;;3.42;;
49416;SDS011;35290;39.550;8.786;2023-05-10T14:14:35;16.58;;;3.17;;
49416;SDS011;35290;39.550;8.786;2023-05-10T14:17:01;17.48;;;3.17;;
49416;SDS011;35290;39.550;8.786;2023-05-10T14:22:30;19.55;;;3.13;;
49416;SDS011;35290;39.550;8.786;2023-05-10T14:24:55;23.42;;;4.72;;
49416;SDS011;35290;39.550;8.786;2023-05-10T14:27:21;19.80;;;3.03;;
49416;SDS011;35290;39.550;8.786;2023-05-10T14:32:51;26.00;;;3.75;;
49416;SDS011;35290;39.550;8.786;2023-05-10T14:35:19;27.95;;;4.88;;
49416;SDS011;35290;39.550;8.786;2023-05-10T14:40:49;13.10;;;2.42;;
49416;SDS011;35290;39.550;8.786;2023-05-10T14:43:14;19.55;;;2.72;;
49416;SDS011;35290;39.550;8.786;2023-05-10T19:52:52;22.75;;;4.60;;
49416;SDS011;35290;39.550;8.786;2023-05-10T22:22:38;20.60;;;3.20;;
49416;SDS011;35290;39.550;8.786;2023-05-10T22:25:05;23.35;;;3.50;;
49416;SDS011;35290;39.550;8.786;2023-05-10T22:27:32;22.13;;;3.08;;
49416;SDS011;35290;39.550;8.786;2023-05-10T22:29:58;19.05;;;3.00;;
49416;SDS011;35290;39.550;8.786;2023-05-10T22:32:23;18.35;;;3.08;;
49416;SDS011;35290;39.550;8.786;2023-05-10T22:34:50;15.35;;;2.60;;
49416;SDS011;35290;39.550;8.786;2023-05-10T22:37:16;18.38;;;3.03;;
49416;SDS011;35290;39.550;8.786;2023-05-10T22:42:45;13.38;;;2.42;;
49416;SDS011;35290;39.550;8.786;2023-05-10T22:45:11;22.50;;;3.00;;
49416;SDS011;35290;39.550;8.786;2023-05-10T22:47:36;19.52;;;2.97;;
49416;SDS011;35290;39.550;8.786;2023-05-10T22:53:05;16.58;;;3.90;;
49416;SDS011;35290;39.550;8.786;2023-05-10T22:55:32;20.60;;;3.47;;
49416;SDS011;35290;39.550;8.786;2023-05-10T22:57:58;17.00;;;3.10;;
49416;SDS011;35290;39.550;8.786;2023-05-10T23:00:23;16.13;;;2.83;;
49416;SDS011;35290;39.550;8.786;2023-05-10T23:02:49;22.23;;;3.22;;
49416;SDS011;35290;39.550;8.786;2023-05-10T23:05:15;14.43;;;2.58;;
49416;SDS011;35290;39.550;8.786;2023-05-10T23:07:41;23.77;;;3.33;;
49416;SDS011;35290;39.550;8.786;2023-05-10T23:13:10;19.27;;;3.15;;
49416;SDS011;35290;39.550;8.786;2023-05-10T23:15:36;13.77;;;2.72;;
49416;SDS011;35290;39.550;8.786;2023-05-10T23:21:04;24.77;;;3.60;;
49416;SDS011;35290;39.550;8.786;2023-05-10T23:23:31;18.15;;;2.80;;
49416;SDS011;35290;39.550;8.786;2023-05-10T23:25:58;19.30;;;2.80;;
49416;SDS011;35290;39.550;8.786;2023-05-10T23:33:52;22.50;;;4.15;;
49416;SDS011;35290;39.550;8.786;2023-05-10T23:36:19;15.20;;;2.83;;
49416;SDS011;35290;39.550;8.786;2023-05-10T23:41:47;20.00;;;3.08;;
49416;SDS011;35290;39.550;8.786;2023-05-10T23:47:17;20.33;;;3.00;;
49416;SDS011;35290;39.550;8.786;2023-05-10T23:52:46;15.32;;;2.97;;
49416;SDS011;35290;39.550;8.786;2023-05-10T23:55:12;17.50;;;2.90;;
49416;SDS011;35290;39.550;8.786;2023-05-10T23:57:38;20.70;;;2.58;;
